Airfield :
LOGIN :

Register | Disclaimer

   EN    FR    IT 

 










Legend :    VFR   Marginal VFR   IFR   Intensive IFR   Very Intensive IFR
Visi :
Ceiling :
>= 8 km
>= 3000ft
5 to 8 km
1000 to 3000 ft
1500m to 5 km
500 to 1000 ft
800 to 1500m
200 to 500 ft
< 800m
< 200 ft
Symbols :   Thunderstorms  Fog  Heavy snow  Heavy precipitations  Wind > 20 kt
SIGMETs :     Misc.  Thunderstorms  Icing  Turbulence  Mountain Waves  Volcanic Ashes






- Airport Elevation : 154 ft
- IATA code : SZZ


EPSC - Szczecin Goleniow

CURRENT METAR :
  • 200530Z 22005KT 190V250 9999 BKN039 03/01 Q1018

EXPIRED METARs :
  • 200500Z 25007KT 9999 OVC039 04/01 Q1018
  • 200430Z 25008KT 200V270 9999 FEW012 OVC041 04/02 Q1017
  • 200400Z 25007KT 220V280 9999 FEW012 OVC039 04/02 Q1017
  • 200330Z 26009KT 9999 BKN010 OVC043 04/02 Q1017
  • 200300Z 25008KT 220V290 9999 FEW009 BKN011 04/02 Q1017

TAF TAF EPSC
Valid from the 20 at 00:00 until the 21 at 00:00 UTC


192330Z 2000/2024 26010KT 9999 BKN020
TEMPO 2000/2006 4000 SHRA BKN007 OVC012CB
PROB40
TEMPO 2000/2006 2500 SHRASN OVC004
BECMG 2008/2011 18015KT
TEMPO 2008/2024 19020G30KT
BECMG 2015/2017 4000 -RA BR BKN006 OVC012



MET'MAP, your aeronautical weather chart ! - Copyright ORBIFLY December 2007 - Disclaimer

ORBIFLY MET'MAP TEAM :

Programming & Development : Alexandra Zaïnal
Concept & original design : Baudouin d'Aumeries
Assistance for programming : Marc-Olivier Méhu
Technical & hardware support : Manuel Goepfert

Contact : metmap@orbifly.com




SOURCES & CREDITS :

   NOAA